sensor_id;sensor_type;location;lat;lon;timestamp;temperature;humidity
3860;DHT22;1945;52.036;8.614;2023-03-02T00:02:09;-0.20;99.90
3860;DHT22;1945;52.036;8.614;2023-03-02T00:04:40;-0.20;99.90
3860;DHT22;1945;52.036;8.614;2023-03-02T00:07:11;-0.20;99.90
3860;DHT22;1945;52.036;8.614;2023-03-02T00:09:39;-0.20;99.90
3860;DHT22;1945;52.036;8.614;2023-03-02T00:12:08;-0.10;99.90
3860;DHT22;1945;52.036;8.614;2023-03-02T00:14:36;-0.50;99.90
3860;DHT22;1945;52.036;8.614;2023-03-02T00:17:03;-0.60;99.90
3860;DHT22;1945;52.036;8.614;2023-03-02T00:19:32;-0.80;99.90
3860;DHT22;1945;52.036;8.614;2023-03-02T00:22:00;-0.30;99.90
3860;DHT22;1945;52.036;8.614;2023-03-02T00:24:27;-0.30;99.90
3860;DHT22;1945;52.036;8.614;2023-03-02T00:26:54;-0.90;99.90
3860;DHT22;1945;52.036;8.614;2023-03-02T00:29:20;-1.00;99.90
3860;DHT22;1945;52.036;8.614;2023-03-02T00:31:48;-1.00;99.90
3860;DHT22;1945;52.036;8.614;2023-03-02T00:34:15;-0.70;99.90
3860;DHT22;1945;52.036;8.614;2023-03-02T00:36:42;-1.20;1.00
3860;DHT22;1945;52.036;8.614;2023-03-02T00:39:08;-0.60;1.00
3860;DHT22;1945;52.036;8.614;2023-03-02T00:41:35;-1.20;1.00
3860;DHT22;1945;52.036;8.614;2023-03-02T00:44:02;-1.30;1.00
3860;DHT22;1945;52.036;8.614;2023-03-02T00:46:28;-1.30;1.00
3860;DHT22;1945;52.036;8.614;2023-03-02T00:48:56;-1.30;1.00
3860;DHT22;1945;52.036;8.614;2023-03-02T00:51:23;-1.40;1.00
3860;DHT22;1945;52.036;8.614;2023-03-02T00:53:50;-1.50;1.00
3860;DHT22;1945;52.036;8.614;2023-03-02T00:56:17;-1.50;1.00
3860;DHT22;1945;52.036;8.614;2023-03-02T00:58:43;-1.60;1.00
3860;DHT22;1945;52.036;8.614;2023-03-02T01:01:11;-1.60;1.00
3860;DHT22;1945;52.036;8.614;2023-03-02T01:03:39;-1.10;1.00
3860;DHT22;1945;52.036;8.614;2023-03-02T01:06:13;-1.30;1.00
3860;DHT22;1945;52.036;8.614;2023-03-02T01:08:40;-1.70;1.00
3860;DHT22;1945;52.036;8.614;2023-03-02T01:11:12;-1.70;1.00
3860;DHT22;1945;52.036;8.614;2023-03-02T01:13:39;-1.30;1.00
3860;DHT22;1945;52.036;8.614;2023-03-02T01:16:06;-1.90;1.00
3860;DHT22;1945;52.036;8.614;2023-03-02T01:18:33;-1.90;1.00
3860;DHT22;1945;52.036;8.614;2023-03-02T01:21:04;-2.00;1.00
3860;DHT22;1945;52.036;8.614;2023-03-02T01:23:33;-2.00;1.00
3860;DHT22;1945;52.036;8.614;2023-03-02T01:26:00;-1.50;1.00
3860;DHT22;1945;52.036;8.614;2023-03-02T01:28:27;-1.60;1.00
3860;DHT22;1945;52.036;8.614;2023-03-02T01:30:54;-2.10;1.00
3860;DHT22;1945;52.036;8.614;2023-03-02T01:33:20;-2.20;1.00
3860;DHT22;1945;52.036;8.614;2023-03-02T01:35:47;-2.20;1.00
3860;DHT22;1945;52.036;8.614;2023-03-02T01:38:14;-2.20;1.00
3860;DHT22;1945;52.036;8.614;2023-03-02T01:40:42;-2.20;1.00
3860;DHT22;1945;52.036;8.614;2023-03-02T01:43:11;-2.30;1.00
3860;DHT22;1945;52.036;8.614;2023-03-02T01:45:51;-2.30;1.00
3860;DHT22;1945;52.036;8.614;2023-03-02T01:48:22;-1.80;1.00
3860;DHT22;1945;52.036;8.614;2023-03-02T01:50:52;-2.30;1.00
3860;DHT22;1945;52.036;8.614;2023-03-02T01:53:22;-2.30;1.00
3860;DHT22;1945;52.036;8.614;2023-03-02T01:55:51;-2.20;1.00
3860;DHT22;1945;52.036;8.614;2023-03-02T01:58:18;-1.90;1.00
3860;DHT22;1945;52.036;8.614;2023-03-02T02:00:46;-1.80;1.00
3860;DHT22;1945;52.036;8.614;2023-03-02T02:03:16;-2.00;1.00
3860;DHT22;1945;52.036;8.614;2023-03-02T02:05:47;-1.90;1.00
3860;DHT22;1945;52.036;8.614;2023-03-02T02:08:20;-1.80;1.00
3860;DHT22;1945;52.036;8.614;2023-03-02T02:10:47;-1.60;1.00
3860;DHT22;1945;52.036;8.614;2023-03-02T02:13:15;-2.00;1.00
3860;DHT22;1945;52.036;8.614;2023-03-02T02:15:42;-1.70;1.00
3860;DHT22;1945;52.036;8.614;2023-03-02T02:18:09;-2.20;1.00
3860;DHT22;1945;52.036;8.614;2023-03-02T02:20:39;-2.20;1.00
3860;DHT22;1945;52.036;8.614;2023-03-02T02:23:24;-2.20;1.00
3860;DHT22;1945;52.036;8.614;2023-03-02T02:26:10;-2.30;1.00
3860;DHT22;1945;52.036;8.614;2023-03-02T02:28:41;-1.70;68.90
3860;DHT22;1945;52.036;8.614;2023-03-02T02:31:13;-2.30;99.90
3860;DHT22;1945;52.036;8.614;2023-03-02T02:33:42;-1.90;71.20
3860;DHT22;1945;52.036;8.614;2023-03-02T02:36:14;-2.20;1.00
3860;DHT22;1945;52.036;8.614;2023-03-02T02:38:45;-2.20;1.00
3860;DHT22;1945;52.036;8.614;2023-03-02T02:41:18;-2.10;1.00
3860;DHT22;1945;52.036;8.614;2023-03-02T02:43:46;-1.50;10.50
3860;DHT22;1945;52.036;8.614;2023-03-02T02:46:13;-1.50;1.00
3860;DHT22;1945;52.036;8.614;2023-03-02T02:48:39;-2.10;1.00
3860;DHT22;1945;52.036;8.614;2023-03-02T02:51:07;-2.00;1.00
3860;DHT22;1945;52.036;8.614;2023-03-02T02:53:40;-2.60;1.00
3860;DHT22;1945;52.036;8.614;2023-03-02T02:56:09;-2.00;1.00
3860;DHT22;1945;52.036;8.614;2023-03-02T02:58:40;-1.60;1.00
3860;DHT22;1945;52.036;8.614;2023-03-02T03:01:11;-1.70;1.00
3860;DHT22;1945;52.036;8.614;2023-03-02T03:03:39;-2.10;1.00
3860;DHT22;1945;52.036;8.614;2023-03-02T03:06:16;-2.10;1.00
3860;DHT22;1945;52.036;8.614;2023-03-02T03:08:55;-1.60;1.00
3860;DHT22;1945;52.036;8.614;2023-03-02T03:11:24;-1.60;1.00
3860;DHT22;1945;52.036;8.614;2023-03-02T03:13:56;-2.20;68.30
3860;DHT22;1945;52.036;8.614;2023-03-02T03:16:25;-2.30;45.20
3860;DHT22;1945;52.036;8.614;2023-03-02T03:18:53;-2.40;44.70
3860;DHT22;1945;52.036;8.614;2023-03-02T03:21:21;-2.30;56.40
3860;DHT22;1945;52.036;8.614;2023-03-02T03:23:48;-2.30;38.30
3860;DHT22;1945;52.036;8.614;2023-03-02T03:26:15;-1.90;20.90
3860;DHT22;1945;52.036;8.614;2023-03-02T03:28:42;-1.80;61.80
3860;DHT22;1945;52.036;8.614;2023-03-02T03:31:10;-2.30;11.10
3860;DHT22;1945;52.036;8.614;2023-03-02T03:33:37;-1.80;1.00
3860;DHT22;1945;52.036;8.614;2023-03-02T03:36:04;-2.30;18.10
3860;DHT22;1945;52.036;8.614;2023-03-02T03:38:31;-2.40;1.00
3860;DHT22;1945;52.036;8.614;2023-03-02T03:40:57;-2.00;3.90
3860;DHT22;1945;52.036;8.614;2023-03-02T03:43:24;-2.60;19.40
3860;DHT22;1945;52.036;8.614;2023-03-02T03:45:51;-2.60;81.90
3860;DHT22;1945;52.036;8.614;2023-03-02T03:48:19;-2.20;99.90
3860;DHT22;1945;52.036;8.614;2023-03-02T03:50:45;-2.80;99.90
3860;DHT22;1945;52.036;8.614;2023-03-02T03:53:12;-2.90;99.90
3860;DHT22;1945;52.036;8.614;2023-03-02T03:55:39;-2.40;99.90
3860;DHT22;1945;52.036;8.614;2023-03-02T03:58:06;-2.70;99.90
3860;DHT22;1945;52.036;8.614;2023-03-02T04:00:32;-2.70;99.90
3860;DHT22;1945;52.036;8.614;2023-03-02T04:02:59;-2.40;99.90
3860;DHT22;1945;52.036;8.614;2023-03-02T04:05:27;-2.30;99.90
3860;DHT22;1945;52.036;8.614;2023-03-02T04:07:54;-2.70;99.90
3860;DHT22;1945;52.036;8.614;2023-03-02T04:10:21;-2.80;99.90
3860;DHT22;1945;52.036;8.614;2023-03-02T04:12:47;-2.90;99.90
3860;DHT22;1945;52.036;8.614;2023-03-02T04:15:15;-2.70;99.90
3860;DHT22;1945;52.036;8.614;2023-03-02T04:17:42;-3.00;99.90
3860;DHT22;1945;52.036;8.614;2023-03-02T04:20:10;-2.50;99.90
3860;DHT22;1945;52.036;8.614;2023-03-02T04:22:42;-3.00;99.90
3860;DHT22;1945;52.036;8.614;2023-03-02T04:25:09;-3.00;99.90
3860;DHT22;1945;52.036;8.614;2023-03-02T04:27:36;-2.90;99.90
3860;DHT22;1945;52.036;8.614;2023-03-02T04:30:05;-2.50;99.90
3860;DHT22;1945;52.036;8.614;2023-03-02T04:32:32;-3.10;99.90
3860;DHT22;1945;52.036;8.614;2023-03-02T04:34:59;-3.10;99.90
3860;DHT22;1945;52.036;8.614;2023-03-02T04:37:25;-3.10;99.90
3860;DHT22;1945;52.036;8.614;2023-03-02T04:39:54;-2.90;99.90
3860;DHT22;1945;52.036;8.614;2023-03-02T04:42:20;-3.30;99.90
3860;DHT22;1945;52.036;8.614;2023-03-02T04:44:47;-3.10;99.90
3860;DHT22;1945;52.036;8.614;2023-03-02T04:47:14;-3.20;99.90
3860;DHT22;1945;52.036;8.614;2023-03-02T04:49:41;-3.30;99.90
3860;DHT22;1945;52.036;8.614;2023-03-02T04:52:08;-3.40;99.90
3860;DHT22;1945;52.036;8.614;2023-03-02T04:54:34;-3.30;99.90
3860;DHT22;1945;52.036;8.614;2023-03-02T04:57:03;-3.40;99.90
3860;DHT22;1945;52.036;8.614;2023-03-02T04:59:29;-3.50;99.90
3860;DHT22;1945;52.036;8.614;2023-03-02T05:01:58;-3.30;99.90
3860;DHT22;1945;52.036;8.614;2023-03-02T05:04:25;-2.90;99.90
3860;DHT22;1945;52.036;8.614;2023-03-02T05:06:52;-3.20;99.90
3860;DHT22;1945;52.036;8.614;2023-03-02T05:09:19;-3.40;1.00
3860;DHT22;1945;52.036;8.614;2023-03-02T05:11:52;-3.00;1.00
3860;DHT22;1945;52.036;8.614;2023-03-02T05:14:20;-2.70;1.00
3860;DHT22;1945;52.036;8.614;2023-03-02T05:16:47;-3.10;1.00
3860;DHT22;1945;52.036;8.614;2023-03-02T05:19:14;-2.40;1.00
3860;DHT22;1945;52.036;8.614;2023-03-02T05:21:41;-2.10;1.00
3860;DHT22;1945;52.036;8.614;2023-03-02T05:24:09;-2.20;1.00
3860;DHT22;1945;52.036;8.614;2023-03-02T05:26:36;-2.70;1.00
3860;DHT22;1945;52.036;8.614;2023-03-02T05:29:03;-2.30;99.90
3860;DHT22;1945;52.036;8.614;2023-03-02T05:31:33;-2.60;99.90
3860;DHT22;1945;52.036;8.614;2023-03-02T05:34:01;-2.60;99.90
3860;DHT22;1945;52.036;8.614;2023-03-02T05:36:27;-2.60;99.90
3860;DHT22;1945;52.036;8.614;2023-03-02T05:38:54;-2.70;99.90
3860;DHT22;1945;52.036;8.614;2023-03-02T05:41:21;-2.10;99.90
3860;DHT22;1945;52.036;8.614;2023-03-02T05:43:48;-2.30;99.90
3860;DHT22;1945;52.036;8.614;2023-03-02T05:46:15;-2.90;99.90
3860;DHT22;1945;52.036;8.614;2023-03-02T05:48:43;-3.30;99.90
3860;DHT22;1945;52.036;8.614;2023-03-02T05:51:11;-2.20;99.90
3860;DHT22;1945;52.036;8.614;2023-03-02T05:53:37;-2.10;99.90
3860;DHT22;1945;52.036;8.614;2023-03-02T05:56:05;-2.70;99.90
3860;DHT22;1945;52.036;8.614;2023-03-02T05:58:32;-2.70;99.90
3860;DHT22;1945;52.036;8.614;2023-03-02T06:01:00;-2.20;99.90
3860;DHT22;1945;52.036;8.614;2023-03-02T06:03:26;-2.50;99.90
3860;DHT22;1945;52.036;8.614;2023-03-02T06:05:54;-2.90;99.90
3860;DHT22;1945;52.036;8.614;2023-03-02T06:08:21;-2.60;99.90
3860;DHT22;1945;52.036;8.614;2023-03-02T06:10:48;-2.50;1.00
3860;DHT22;1945;52.036;8.614;2023-03-02T06:13:15;-3.10;1.00
3860;DHT22;1945;52.036;8.614;2023-03-02T06:15:42;-2.60;1.00
3860;DHT22;1945;52.036;8.614;2023-03-02T06:18:09;-2.60;99.90
3860;DHT22;1945;52.036;8.614;2023-03-02T06:20:37;-3.80;99.90
3860;DHT22;1945;52.036;8.614;2023-03-02T06:23:05;-2.60;99.90
3860;DHT22;1945;52.036;8.614;2023-03-02T06:25:32;-2.60;1.00
3860;DHT22;1945;52.036;8.614;2023-03-02T06:28:00;-2.60;1.00
3860;DHT22;1945;52.036;8.614;2023-03-02T06:30:27;-2.60;1.00
3860;DHT22;1945;52.036;8.614;2023-03-02T06:32:54;-2.80;1.00
3860;DHT22;1945;52.036;8.614;2023-03-02T06:35:20;-3.00;1.00
3860;DHT22;1945;52.036;8.614;2023-03-02T06:37:48;-3.00;1.00
3860;DHT22;1945;52.036;8.614;2023-03-02T06:40:16;-2.40;1.00
3860;DHT22;1945;52.036;8.614;2023-03-02T06:42:43;-2.80;1.00
3860;DHT22;1945;52.036;8.614;2023-03-02T06:45:10;-2.70;1.00
3860;DHT22;1945;52.036;8.614;2023-03-02T06:47:37;-2.50;1.00
3860;DHT22;1945;52.036;8.614;2023-03-02T06:50:05;-2.20;1.00
3860;DHT22;1945;52.036;8.614;2023-03-02T06:52:32;-1.90;1.00
3860;DHT22;1945;52.036;8.614;2023-03-02T06:54:59;-1.00;1.00
3860;DHT22;1945;52.036;8.614;2023-03-02T06:57:27;-0.60;1.00
3860;DHT22;1945;52.036;8.614;2023-03-02T06:59:58;-0.90;1.00
3860;DHT22;1945;52.036;8.614;2023-03-02T07:02:25;-0.60;1.00
3860;DHT22;1945;52.036;8.614;2023-03-02T07:04:52;-0.10;1.00
3860;DHT22;1945;52.036;8.614;2023-03-02T07:07:18;-0.10;1.00
3860;DHT22;1945;52.036;8.614;2023-03-02T07:09:45;0.30;1.00
3860;DHT22;1945;52.036;8.614;2023-03-02T07:12:12;0.00;1.00
3860;DHT22;1945;52.036;8.614;2023-03-02T07:14:40;0.60;99.90
3860;DHT22;1945;52.036;8.614;2023-03-02T07:17:08;0.30;99.90
3860;DHT22;1945;52.036;8.614;2023-03-02T07:19:35;0.40;99.90
3860;DHT22;1945;52.036;8.614;2023-03-02T07:22:03;0.40;99.90
3860;DHT22;1945;52.036;8.614;2023-03-02T07:24:30;0.50;99.90
3860;DHT22;1945;52.036;8.614;2023-03-02T07:26:57;0.60;1.00
3860;DHT22;1945;52.036;8.614;2023-03-02T07:29:23;0.70;1.00
3860;DHT22;1945;52.036;8.614;2023-03-02T07:31:51;0.90;99.90
3860;DHT22;1945;52.036;8.614;2023-03-02T07:34:21;1.10;99.90
3860;DHT22;1945;52.036;8.614;2023-03-02T07:36:48;1.10;99.90
3860;DHT22;1945;52.036;8.614;2023-03-02T07:39:15;1.70;99.90
3860;DHT22;1945;52.036;8.614;2023-03-02T07:41:41;1.30;99.90
3860;DHT22;1945;52.036;8.614;2023-03-02T07:44:08;1.30;99.90
3860;DHT22;1945;52.036;8.614;2023-03-02T07:46:35;1.40;99.90
3860;DHT22;1945;52.036;8.614;2023-03-02T07:49:03;1.40;99.90
3860;DHT22;1945;52.036;8.614;2023-03-02T07:51:30;1.60;99.90
3860;DHT22;1945;52.036;8.614;2023-03-02T07:53:57;1.70;99.90
3860;DHT22;1945;52.036;8.614;2023-03-02T07:56:24;1.60;99.90
3860;DHT22;1945;52.036;8.614;2023-03-02T07:58:50;1.70;99.90
3860;DHT22;1945;52.036;8.614;2023-03-02T08:01:17;1.80;99.90
3860;DHT22;1945;52.036;8.614;2023-03-02T08:03:43;1.80;99.90
3860;DHT22;1945;52.036;8.614;2023-03-02T08:06:12;1.70;42.30
3860;DHT22;1945;52.036;8.614;2023-03-02T08:08:39;1.80;99.90
3860;DHT22;1945;52.036;8.614;2023-03-02T08:11:06;1.90;99.90
3860;DHT22;1945;52.036;8.614;2023-03-02T08:13:33;1.80;99.90
3860;DHT22;1945;52.036;8.614;2023-03-02T08:16:00;1.80;99.90
3860;DHT22;1945;52.036;8.614;2023-03-02T08:18:27;1.80;99.90
3860;DHT22;1945;52.036;8.614;2023-03-02T08:20:54;1.80;99.90
3860;DHT22;1945;52.036;8.614;2023-03-02T08:23:22;1.80;99.90
3860;DHT22;1945;52.036;8.614;2023-03-02T08:25:49;2.00;99.90
3860;DHT22;1945;52.036;8.614;2023-03-02T08:28:17;1.90;99.90
3860;DHT22;1945;52.036;8.614;2023-03-02T08:30:54;1.90;99.90
3860;DHT22;1945;52.036;8.614;2023-03-02T08:33:20;2.00;99.90
3860;DHT22;1945;52.036;8.614;2023-03-02T08:35:53;1.90;99.90
3860;DHT22;1945;52.036;8.614;2023-03-02T08:38:22;1.90;99.90
3860;DHT22;1945;52.036;8.614;2023-03-02T08:40:49;1.80;99.90
3860;DHT22;1945;52.036;8.614;2023-03-02T08:43:17;2.00;99.90
3860;DHT22;1945;52.036;8.614;2023-03-02T08:45:43;1.90;99.90
3860;DHT22;1945;52.036;8.614;2023-03-02T08:48:10;1.80;99.90
3860;DHT22;1945;52.036;8.614;2023-03-02T08:50:37;2.20;99.90
3860;DHT22;1945;52.036;8.614;2023-03-02T08:53:03;1.70;99.90
3860;DHT22;1945;52.036;8.614;2023-03-02T08:55:35;1.70;99.90
3860;DHT22;1945;52.036;8.614;2023-03-02T08:58:02;1.80;99.90
3860;DHT22;1945;52.036;8.614;2023-03-02T09:00:28;1.70;99.90
3860;DHT22;1945;52.036;8.614;2023-03-02T09:02:55;1.60;99.90
3860;DHT22;1945;52.036;8.614;2023-03-02T09:05:21;2.20;99.90
3860;DHT22;1945;52.036;8.614;2023-03-02T09:07:48;1.90;99.90
3860;DHT22;1945;52.036;8.614;2023-03-02T09:10:15;1.90;99.90
3860;DHT22;1945;52.036;8.614;2023-03-02T09:12:43;1.90;99.90
3860;DHT22;1945;52.036;8.614;2023-03-02T09:15:09;2.00;99.90
3860;DHT22;1945;52.036;8.614;2023-03-02T09:17:36;1.90;99.90
3860;DHT22;1945;52.036;8.614;2023-03-02T09:20:04;1.90;99.90
3860;DHT22;1945;52.036;8.614;2023-03-02T09:22:31;1.90;99.90
3860;DHT22;1945;52.036;8.614;2023-03-02T09:25:00;2.00;99.90
3860;DHT22;1945;52.036;8.614;2023-03-02T09:27:27;2.00;99.90
3860;DHT22;1945;52.036;8.614;2023-03-02T09:29:55;2.00;99.90
3860;DHT22;1945;52.036;8.614;2023-03-02T09:32:22;2.10;99.90
3860;DHT22;1945;52.036;8.614;2023-03-02T09:34:49;2.10;99.90
3860;DHT22;1945;52.036;8.614;2023-03-02T09:37:15;2.10;99.90
3860;DHT22;1945;52.036;8.614;2023-03-02T09:39:42;2.20;99.90
3860;DHT22;1945;52.036;8.614;2023-03-02T09:42:41;2.20;99.90
3860;DHT22;1945;52.036;8.614;2023-03-02T09:45:24;2.30;99.90
3860;DHT22;1945;52.036;8.614;2023-03-02T09:48:04;2.40;99.90
3860;DHT22;1945;52.036;8.614;2023-03-02T09:50:39;2.30;99.90
3860;DHT22;1945;52.036;8.614;2023-03-02T09:53:23;2.40;99.90
3860;DHT22;1945;52.036;8.614;2023-03-02T09:55:56;2.50;1.00
3860;DHT22;1945;52.036;8.614;2023-03-02T09:58:29;2.50;99.90
3860;DHT22;1945;52.036;8.614;2023-03-02T10:01:02;2.40;99.90
3860;DHT22;1945;52.036;8.614;2023-03-02T10:03:35;2.50;99.90
3860;DHT22;1945;52.036;8.614;2023-03-02T10:06:04;2.40;99.90
3860;DHT22;1945;52.036;8.614;2023-03-02T10:08:34;2.50;99.90
3860;DHT22;1945;52.036;8.614;2023-03-02T10:11:07;2.60;99.90
3860;DHT22;1945;52.036;8.614;2023-03-02T10:13:40;2.60;99.90
3860;DHT22;1945;52.036;8.614;2023-03-02T10:16:21;3.00;99.90
3860;DHT22;1945;52.036;8.614;2023-03-02T10:18:57;2.70;99.90
3860;DHT22;1945;52.036;8.614;2023-03-02T10:21:29;2.70;99.90
3860;DHT22;1945;52.036;8.614;2023-03-02T10:24:01;2.70;99.90
3860;DHT22;1945;52.036;8.614;2023-03-02T10:26:38;2.80;99.90
3860;DHT22;1945;52.036;8.614;2023-03-02T10:29:21;2.80;99.90
3860;DHT22;1945;52.036;8.614;2023-03-02T10:31:55;2.80;99.90
3860;DHT22;1945;52.036;8.614;2023-03-02T10:34:26;3.40;99.90
3860;DHT22;1945;52.036;8.614;2023-03-02T10:36:53;3.00;99.90
3860;DHT22;1945;52.036;8.614;2023-03-02T10:39:19;3.00;99.90
3860;DHT22;1945;52.036;8.614;2023-03-02T10:41:50;3.10;99.90
3860;DHT22;1945;52.036;8.614;2023-03-02T10:44:21;3.10;99.90
3860;DHT22;1945;52.036;8.614;2023-03-02T10:46:51;3.20;99.90
3860;DHT22;1945;52.036;8.614;2023-03-02T10:49:26;3.30;99.90
3860;DHT22;1945;52.036;8.614;2023-03-02T10:51:58;3.30;99.90
3860;DHT22;1945;52.036;8.614;2023-03-02T10:54:25;3.40;99.90
3860;DHT22;1945;52.036;8.614;2023-03-02T10:56:56;3.50;99.90
3860;DHT22;1945;52.036;8.614;2023-03-02T10:59:42;3.50;99.90
3860;DHT22;1945;52.036;8.614;2023-03-02T11:02:16;3.60;99.90
3860;DHT22;1945;52.036;8.614;2023-03-02T11:04:47;3.70;1.00
3860;DHT22;1945;52.036;8.614;2023-03-02T11:07:17;3.70;99.90
3860;DHT22;1945;52.036;8.614;2023-03-02T11:09:58;3.70;99.90
3860;DHT22;1945;52.036;8.614;2023-03-02T11:12:26;3.80;44.10
3860;DHT22;1945;52.036;8.614;2023-03-02T11:15:14;3.90;99.90
3860;DHT22;1945;52.036;8.614;2023-03-02T11:17:44;3.80;46.00
3860;DHT22;1945;52.036;8.614;2023-03-02T11:20:15;3.90;73.40
3860;DHT22;1945;52.036;8.614;2023-03-02T11:22:48;3.90;71.80
3860;DHT22;1945;52.036;8.614;2023-03-02T11:25:22;4.00;27.20
3860;DHT22;1945;52.036;8.614;2023-03-02T11:27:57;4.20;99.90
3860;DHT22;1945;52.036;8.614;2023-03-02T11:30:24;4.20;1.00
3860;DHT22;1945;52.036;8.614;2023-03-02T11:32:59;4.30;1.00
3860;DHT22;1945;52.036;8.614;2023-03-02T11:35:30;4.80;60.30
3860;DHT22;1945;52.036;8.614;2023-03-02T11:38:03;4.50;6.70
3860;DHT22;1945;52.036;8.614;2023-03-02T11:40:41;4.50;1.00
3860;DHT22;1945;52.036;8.614;2023-03-02T11:43:11;4.70;99.90
3860;DHT22;1945;52.036;8.614;2023-03-02T11:45:43;4.70;1.00
3860;DHT22;1945;52.036;8.614;2023-03-02T11:48:17;4.80;1.00
3860;DHT22;1945;52.036;8.614;2023-03-02T11:50:53;4.90;1.00
3860;DHT22;1945;52.036;8.614;2023-03-02T11:53:26;5.00;1.00
3860;DHT22;1945;52.036;8.614;2023-03-02T11:55:54;5.10;1.00
3860;DHT22;1945;52.036;8.614;2023-03-02T11:58:23;5.00;1.00
3860;DHT22;1945;52.036;8.614;2023-03-02T12:00:51;5.10;1.00
3860;DHT22;1945;52.036;8.614;2023-03-02T12:03:22;5.20;1.00
3860;DHT22;1945;52.036;8.614;2023-03-02T12:06:00;5.40;1.00
3860;DHT22;1945;52.036;8.614;2023-03-02T12:08:34;5.40;1.00
3860;DHT22;1945;52.036;8.614;2023-03-02T12:11:03;5.40;1.00
3860;DHT22;1945;52.036;8.614;2023-03-02T12:13:33;5.60;1.00
3860;DHT22;1945;52.036;8.614;2023-03-02T12:16:00;5.60;1.00
3860;DHT22;1945;52.036;8.614;2023-03-02T12:18:40;5.40;1.00
3860;DHT22;1945;52.036;8.614;2023-03-02T12:21:11;5.50;1.00
3860;DHT22;1945;52.036;8.614;2023-03-02T12:23:53;5.50;1.00
3860;DHT22;1945;52.036;8.614;2023-03-02T12:26:30;5.40;1.00
3860;DHT22;1945;52.036;8.614;2023-03-02T12:29:02;5.40;36.20
3860;DHT22;1945;52.036;8.614;2023-03-02T12:31:43;5.30;1.00
3860;DHT22;1945;52.036;8.614;2023-03-02T12:34:25;5.40;1.00
3860;DHT22;1945;52.036;8.614;2023-03-02T12:36:55;5.30;1.00
3860;DHT22;1945;52.036;8.614;2023-03-02T12:39:30;5.30;1.00
3860;DHT22;1945;52.036;8.614;2023-03-02T12:45:13;5.50;1.00
3860;DHT22;1945;52.036;8.614;2023-03-02T12:47:45;5.50;1.00
3860;DHT22;1945;52.036;8.614;2023-03-02T12:50:18;5.60;1.00
3860;DHT22;1945;52.036;8.614;2023-03-02T12:52:55;5.70;1.00
3860;DHT22;1945;52.036;8.614;2023-03-02T12:55:22;5.60;1.00
3860;DHT22;1945;52.036;8.614;2023-03-02T12:57:51;5.70;1.00
3860;DHT22;1945;52.036;8.614;2023-03-02T13:00:20;5.80;85.10
3860;DHT22;1945;52.036;8.614;2023-03-02T13:02:50;5.70;1.00
3860;DHT22;1945;52.036;8.614;2023-03-02T13:05:21;5.80;1.00
3860;DHT22;1945;52.036;8.614;2023-03-02T13:07:57;5.90;1.00
3860;DHT22;1945;52.036;8.614;2023-03-02T13:10:28;6.00;1.00
3860;DHT22;1945;52.036;8.614;2023-03-02T13:12:56;6.10;1.00
3860;DHT22;1945;52.036;8.614;2023-03-02T13:15:23;6.10;1.00
3860;DHT22;1945;52.036;8.614;2023-03-02T13:17:55;6.10;1.00
3860;DHT22;1945;52.036;8.614;2023-03-02T13:20:25;6.20;1.00
3860;DHT22;1945;52.036;8.614;2023-03-02T13:22:53;6.60;1.00
3860;DHT22;1945;52.036;8.614;2023-03-02T13:25:23;6.30;1.00
3860;DHT22;1945;52.036;8.614;2023-03-02T13:27:51;6.30;1.00
3860;DHT22;1945;52.036;8.614;2023-03-02T13:30:22;6.30;1.00
3860;DHT22;1945;52.036;8.614;2023-03-02T13:32:50;6.30;1.00
3860;DHT22;1945;52.036;8.614;2023-03-02T13:35:20;6.40;1.00
3860;DHT22;1945;52.036;8.614;2023-03-02T13:37:57;6.40;1.00
3860;DHT22;1945;52.036;8.614;2023-03-02T13:40:31;6.40;1.00
3860;DHT22;1945;52.036;8.614;2023-03-02T13:42:58;6.40;1.00
3860;DHT22;1945;52.036;8.614;2023-03-02T13:45:27;6.30;1.00
3860;DHT22;1945;52.036;8.614;2023-03-02T13:47:56;6.50;1.00
3860;DHT22;1945;52.036;8.614;2023-03-02T13:50:26;6.60;1.00
3860;DHT22;1945;52.036;8.614;2023-03-02T13:52:56;6.60;1.00
3860;DHT22;1945;52.036;8.614;2023-03-02T13:55:24;6.50;1.00
3860;DHT22;1945;52.036;8.614;2023-03-02T13:57:51;6.50;1.00
3860;DHT22;1945;52.036;8.614;2023-03-02T14:00:20;6.40;1.00
3860;DHT22;1945;52.036;8.614;2023-03-02T14:02:47;6.30;1.00
3860;DHT22;1945;52.036;8.614;2023-03-02T14:05:17;6.30;1.00
3860;DHT22;1945;52.036;8.614;2023-03-02T14:07:44;6.20;1.00
3860;DHT22;1945;52.036;8.614;2023-03-02T14:10:14;6.20;69.00
3860;DHT22;1945;52.036;8.614;2023-03-02T14:12:43;6.10;18.00
3860;DHT22;1945;52.036;8.614;2023-03-02T14:15:15;6.30;1.00
3860;DHT22;1945;52.036;8.614;2023-03-02T14:17:42;6.10;1.00
3860;DHT22;1945;52.036;8.614;2023-03-02T14:20:12;6.10;1.00
3860;DHT22;1945;52.036;8.614;2023-03-02T14:22:39;6.00;1.00
3860;DHT22;1945;52.036;8.614;2023-03-02T14:25:06;6.00;1.00
3860;DHT22;1945;52.036;8.614;2023-03-02T14:27:35;6.00;1.00
3860;DHT22;1945;52.036;8.614;2023-03-02T14:30:11;6.00;1.00
3860;DHT22;1945;52.036;8.614;2023-03-02T14:32:39;5.90;1.00
3860;DHT22;1945;52.036;8.614;2023-03-02T14:35:09;5.90;1.00
3860;DHT22;1945;52.036;8.614;2023-03-02T14:37:39;5.90;1.00
3860;DHT22;1945;52.036;8.614;2023-03-02T14:40:13;5.90;1.00
3860;DHT22;1945;52.036;8.614;2023-03-02T14:42:41;5.90;1.00
3860;DHT22;1945;52.036;8.614;2023-03-02T14:45:09;5.80;1.00
3860;DHT22;1945;52.036;8.614;2023-03-02T14:47:36;5.80;1.00
3860;DHT22;1945;52.036;8.614;2023-03-02T14:50:02;5.90;1.00
3860;DHT22;1945;52.036;8.614;2023-03-02T14:52:32;5.90;1.00
3860;DHT22;1945;52.036;8.614;2023-03-02T14:55:04;5.70;1.00
3860;DHT22;1945;52.036;8.614;2023-03-02T14:57:35;6.20;46.20
3860;DHT22;1945;52.036;8.614;2023-03-02T15:00:05;5.50;31.30
3860;DHT22;1945;52.036;8.614;2023-03-02T15:02:32;5.50;57.00
3860;DHT22;1945;52.036;8.614;2023-03-02T15:04:58;5.30;1.00
3860;DHT22;1945;52.036;8.614;2023-03-02T15:07:26;5.60;99.90
3860;DHT22;1945;52.036;8.614;2023-03-02T15:09:54;5.20;99.90
3860;DHT22;1945;52.036;8.614;2023-03-02T15:12:21;5.00;99.90
3860;DHT22;1945;52.036;8.614;2023-03-02T15:14:47;5.50;99.90
3860;DHT22;1945;52.036;8.614;2023-03-02T15:17:15;5.00;99.90
3860;DHT22;1945;52.036;8.614;2023-03-02T15:19:44;4.90;99.90
3860;DHT22;1945;52.036;8.614;2023-03-02T15:22:12;5.00;99.90
3860;DHT22;1945;52.036;8.614;2023-03-02T15:24:39;4.90;99.90
3860;DHT22;1945;52.036;8.614;2023-03-02T15:27:06;4.90;99.90
3860;DHT22;1945;52.036;8.614;2023-03-02T15:29:33;5.20;99.90
3860;DHT22;1945;52.036;8.614;2023-03-02T15:31:59;4.60;99.90
3860;DHT22;1945;52.036;8.614;2023-03-02T15:34:27;4.60;99.90
3860;DHT22;1945;52.036;8.614;2023-03-02T15:36:54;4.60;99.90
3860;DHT22;1945;52.036;8.614;2023-03-02T15:39:21;4.50;99.90
3860;DHT22;1945;52.036;8.614;2023-03-02T15:41:47;4.40;99.90
3860;DHT22;1945;52.036;8.614;2023-03-02T15:44:16;4.50;99.90
3860;DHT22;1945;52.036;8.614;2023-03-02T15:46:46;4.40;99.90
3860;DHT22;1945;52.036;8.614;2023-03-02T15:49:13;4.20;99.90
3860;DHT22;1945;52.036;8.614;2023-03-02T15:51:41;4.20;1.00
3860;DHT22;1945;52.036;8.614;2023-03-02T15:54:08;4.20;1.00
3860;DHT22;1945;52.036;8.614;2023-03-02T15:56:36;4.10;1.00
3860;DHT22;1945;52.036;8.614;2023-03-02T15:59:02;4.00;1.00
3860;DHT22;1945;52.036;8.614;2023-03-02T16:01:29;3.90;1.00
3860;DHT22;1945;52.036;8.614;2023-03-02T16:03:57;3.80;1.00
3860;DHT22;1945;52.036;8.614;2023-03-02T16:06:24;3.70;1.00
3860;DHT22;1945;52.036;8.614;2023-03-02T16:08:53;3.70;1.00
3860;DHT22;1945;52.036;8.614;2023-03-02T16:11:19;3.70;1.00
3860;DHT22;1945;52.036;8.614;2023-03-02T16:13:47;3.60;1.00
3860;DHT22;1945;52.036;8.614;2023-03-02T16:16:16;3.50;1.00
3860;DHT22;1945;52.036;8.614;2023-03-02T16:18:47;3.40;1.00
3860;DHT22;1945;52.036;8.614;2023-03-02T16:21:14;3.40;1.00
3860;DHT22;1945;52.036;8.614;2023-03-02T16:23:41;3.30;1.00
3860;DHT22;1945;52.036;8.614;2023-03-02T16:26:12;3.20;1.00
3860;DHT22;1945;52.036;8.614;2023-03-02T16:28:39;3.50;1.00
3860;DHT22;1945;52.036;8.614;2023-03-02T16:31:07;3.10;1.00
3860;DHT22;1945;52.036;8.614;2023-03-02T16:33:35;3.10;1.00
3860;DHT22;1945;52.036;8.614;2023-03-02T16:36:02;3.00;16.30